ACA184 CYVR-CYYZ
Flight info
| Callsign | ACA184 |
|---|---|
| Flight time | 4h 5m |
| Altitude | 35000 |
| Route | ALNOD DCT IKNIX DCT AXILI DCT EMLIK DCT OTLUR DCT AGLIN DCT OTNIK BOXUM7 |
| Aircraft | A321/M-SDE3FGHIRWY/LB1 |
Departure
| Time | 2026-05-03 22:00 |
|---|---|
| Airport | Vancouver International Airport (CYVR) |
Arrival
| Time | 2026-05-04 02:05 |
|---|---|
| Airport | Toronto Pearson International Airport (CYYZ) |
| Time | Latitude | Longitude | Altitude | Speed | Heading |
|---|---|---|---|---|---|
| 2026-05-03 20:21 | 49.19631 | -123.18486 | 9 ft | 0 kts | 179° |
| 2026-05-03 21:45 | 49.19645 | -123.18486 | 9 ft | 2 kts | 179° |
| 2026-05-03 21:45 | 49.19660 | -123.18486 | 9 ft | 2 kts | 179° |
| 2026-05-03 21:46 | 49.19674 | -123.18487 | 9 ft | 2 kts | 179° |
| 2026-05-03 21:46 | 49.19689 | -123.18487 | 9 ft | 1 kts | 194° |
| 2026-05-03 21:46 | 49.19701 | -123.18473 | 9 ft | 2 kts | 246° |
| 2026-05-03 21:46 | 49.19703 | -123.18458 | 9 ft | 0 kts | 278° |
| 2026-05-03 21:47 | 49.19701 | -123.18449 | 9 ft | 0 kts | 281° |
| 2026-05-03 21:50 | 49.19702 | -123.18453 | 9 ft | 0 kts | 282° |
| 2026-05-03 21:50 | 49.19702 | -123.18454 | 9 ft | 0 kts | 282° |
| 2026-05-03 21:51 | 49.19702 | -123.18455 | 9 ft | 0 kts | 282° |
| 2026-05-03 21:51 | 49.19705 | -123.18476 | 9 ft | 3 kts | 280° |
| 2026-05-03 21:51 | 49.19710 | -123.18524 | 9 ft | 6 kts | 280° |
| 2026-05-03 21:52 | 49.19718 | -123.18604 | 9 ft | 8 kts | 270° |
| 2026-05-03 21:52 | 49.19687 | -123.18676 | 9 ft | 8 kts | 194° |
| 2026-05-03 21:52 | 49.19624 | -123.18690 | 9 ft | 9 kts | 191° |
| 2026-05-03 21:52 | 49.19558 | -123.18709 | 8 ft | 9 kts | 191° |
| 2026-05-03 21:53 | 49.19490 | -123.18729 | 9 ft | 10 kts | 190° |
| 2026-05-03 21:53 | 49.19419 | -123.18725 | 9 ft | 10 kts | 155° |
| 2026-05-03 21:53 | 49.19353 | -123.18692 | 9 ft | 10 kts | 193° |
| 2026-05-03 21:53 | 49.19275 | -123.18715 | 9 ft | 12 kts | 190° |
| 2026-05-03 21:54 | 49.19187 | -123.18719 | 9 ft | 13 kts | 158° |
| 2026-05-03 21:54 | 49.19107 | -123.18629 | 9 ft | 14 kts | 141° |
| 2026-05-03 21:54 | 49.19026 | -123.18529 | 8 ft | 14 kts | 142° |
| 2026-05-03 21:54 | 49.18954 | -123.18417 | 9 ft | 14 kts | 109° |
| 2026-05-03 21:55 | 49.18934 | -123.18261 | 9 ft | 15 kts | 99° |
| 2026-05-03 21:55 | 49.18916 | -123.18096 | 9 ft | 16 kts | 100° |
| 2026-05-03 21:55 | 49.18896 | -123.17926 | 9 ft | 16 kts | 100° |
| 2026-05-03 21:55 | 49.18876 | -123.17746 | 8 ft | 18 kts | 99° |
| 2026-05-03 21:56 | 49.18855 | -123.17556 | 9 ft | 18 kts | 100° |
| 2026-05-03 21:56 | 49.18834 | -123.17368 | 9 ft | 17 kts | 100° |
| 2026-05-03 21:56 | 49.18812 | -123.17180 | 9 ft | 18 kts | 99° |
| 2026-05-03 21:56 | 49.18790 | -123.16988 | 9 ft | 18 kts | 100° |
| 2026-05-03 21:57 | 49.18768 | -123.16799 | 8 ft | 17 kts | 100° |
| 2026-05-03 21:57 | 49.18747 | -123.16608 | 9 ft | 18 kts | 99° |
| 2026-05-03 21:57 | 49.18725 | -123.16417 | 9 ft | 18 kts | 100° |
| 2026-05-03 21:57 | 49.18672 | -123.16251 | 8 ft | 17 kts | 134° |
| 2026-05-03 21:58 | 49.18626 | -123.16092 | 9 ft | 9 kts | 112° |
| 2026-05-03 21:58 | 49.18583 | -123.16030 | 9 ft | 9 kts | 167° |
| 2026-05-03 21:58 | 49.18520 | -123.16050 | 9 ft | 9 kts | 198° |
| 2026-05-03 21:58 | 49.18478 | -123.16102 | 9 ft | 3 kts | 293° |
| 2026-05-03 21:59 | 49.18481 | -123.16121 | 9 ft | 7 kts | 283° |
| 2026-05-03 21:59 | 49.18528 | -123.16560 | 9 ft | 77 kts | 282° |
| 2026-05-03 21:59 | 49.18656 | -123.17704 | 9 ft | 139 kts | 280° |
| 2026-05-03 21:59 | 49.18852 | -123.19330 | 338 ft | 160 kts | 283° |
| 2026-05-03 22:00 | 49.19067 | -123.20987 | 915 ft | 164 kts | 281° |
| 2026-05-03 22:00 | 49.19175 | -123.22754 | 1451 ft | 170 kts | 276° |
| 2026-05-03 22:00 | 49.19274 | -123.24569 | 1788 ft | 175 kts | 277° |
| 2026-05-03 22:00 | 49.19395 | -123.26487 | 2027 ft | 186 kts | 277° |
| 2026-05-03 22:01 | 49.19530 | -123.28517 | 2269 ft | 198 kts | 277° |
| 2026-05-03 22:01 | 49.19673 | -123.30677 | 2514 ft | 210 kts | 277° |
| 2026-05-03 22:01 | 49.19825 | -123.32971 | 2762 ft | 224 kts | 276° |
| 2026-05-03 22:01 | 49.19580 | -123.35413 | 2897 ft | 246 kts | 241° |
| 2026-05-03 22:02 | 49.18331 | -123.37255 | 3185 ft | 261 kts | 204° |
| 2026-05-03 22:02 | 49.16519 | -123.37641 | 3534 ft | 271 kts | 167° |
| 2026-05-03 22:02 | 49.14874 | -123.36337 | 4095 ft | 271 kts | 132° |
| 2026-05-03 22:02 | 49.13879 | -123.33936 | 4734 ft | 269 kts | 115° |
| 2026-05-03 22:03 | 49.12837 | -123.31565 | 5301 ft | 275 kts | 136° |
| 2026-05-03 22:03 | 49.11187 | -123.30091 | 5887 ft | 280 kts | 163° |
| 2026-05-03 22:03 | 49.09250 | -123.29804 | 6517 ft | 282 kts | 181° |
| 2026-05-03 22:03 | 49.07282 | -123.30020 | 7091 ft | 286 kts | 185° |
| 2026-05-03 22:04 | 49.05297 | -123.30334 | 7638 ft | 289 kts | 185° |
| 2026-05-03 22:04 | 49.03289 | -123.30673 | 8187 ft | 292 kts | 185° |
| 2026-05-03 22:04 | 49.01273 | -123.31014 | 8743 ft | 293 kts | 185° |
| 2026-05-03 22:04 | 48.99240 | -123.30992 | 9246 ft | 294 kts | 165° |
| 2026-05-03 22:05 | 48.97407 | -123.29719 | 9815 ft | 292 kts | 139° |
| 2026-05-03 22:05 | 48.96120 | -123.27378 | 10314 ft | 293 kts | 115° |
| 2026-05-03 22:05 | 48.95517 | -123.24382 | 10543 ft | 303 kts | 99° |
| 2026-05-03 22:05 | 48.95196 | -123.21160 | 10830 ft | 315 kts | 96° |
| 2026-05-03 22:06 | 48.94919 | -123.17777 | 11058 ft | 328 kts | 95° |
| 2026-05-03 22:06 | 48.94646 | -123.14279 | 11292 ft | 340 kts | 95° |
| 2026-05-03 22:06 | 48.94365 | -123.10640 | 11537 ft | 352 kts | 95° |
| 2026-05-03 22:06 | 48.94077 | -123.06882 | 11744 ft | 364 kts | 95° |
| 2026-05-03 22:07 | 48.93822 | -123.03013 | 11965 ft | 372 kts | 90° |
| 2026-05-03 22:07 | 48.94030 | -122.99093 | 12399 ft | 375 kts | 81° |
| 2026-05-03 22:07 | 48.94432 | -122.95182 | 12900 ft | 376 kts | 79° |
| 2026-05-03 22:07 | 48.94846 | -122.91231 | 13304 ft | 379 kts | 80° |
| 2026-05-03 22:08 | 48.95240 | -122.87262 | 13706 ft | 381 kts | 80° |
| 2026-05-03 22:08 | 48.95616 | -122.83266 | 14144 ft | 383 kts | 81° |
| 2026-05-03 22:08 | 48.95980 | -122.79236 | 14496 ft | 386 kts | 81° |
| 2026-05-03 22:08 | 48.96334 | -122.75194 | 14904 ft | 388 kts | 81° |
| 2026-05-03 22:09 | 48.96686 | -122.71123 | 15317 ft | 390 kts | 81° |
| 2026-05-03 22:09 | 48.97036 | -122.67012 | 15721 ft | 393 kts | 81° |
| 2026-05-03 22:09 | 48.97386 | -122.62867 | 16103 ft | 395 kts | 81° |
| 2026-05-03 22:10 | 48.98082 | -122.54541 | 16862 ft | 400 kts | 81° |
| 2026-05-03 22:10 | 48.98431 | -122.50330 | 17229 ft | 403 kts | 81° |
| 2026-05-03 22:10 | 48.98779 | -122.46099 | 17591 ft | 405 kts | 81° |
| 2026-05-03 22:10 | 48.99129 | -122.41838 | 17951 ft | 407 kts | 80° |
| 2026-05-03 22:11 | 48.99477 | -122.37566 | 18306 ft | 409 kts | 80° |
| 2026-05-03 22:11 | 48.99827 | -122.33260 | 18645 ft | 412 kts | 81° |
| 2026-05-03 22:11 | 49.00178 | -122.28918 | 18995 ft | 413 kts | 81° |
| 2026-05-03 22:11 | 49.00527 | -122.24572 | 19355 ft | 415 kts | 81° |
| 2026-05-03 22:12 | 49.00877 | -122.20209 | 19693 ft | 417 kts | 81° |
| 2026-05-03 22:12 | 49.01226 | -122.15830 | 20015 ft | 419 kts | 81° |
| 2026-05-03 22:12 | 49.01573 | -122.11430 | 20349 ft | 420 kts | 81° |
| 2026-05-03 22:12 | 49.01921 | -122.07019 | 20700 ft | 422 kts | 81° |
| 2026-05-03 22:13 | 49.02268 | -122.02589 | 21015 ft | 423 kts | 81° |
| 2026-05-03 22:13 | 49.02616 | -121.98139 | 21329 ft | 425 kts | 81° |
| 2026-05-03 22:13 | 49.02963 | -121.93675 | 21625 ft | 427 kts | 81° |
| 2026-05-03 22:13 | 49.03310 | -121.89176 | 21904 ft | 429 kts | 81° |
| 2026-05-03 22:14 | 49.03656 | -121.84667 | 22187 ft | 431 kts | 81° |
| 2026-05-03 22:14 | 49.04003 | -121.80134 | 22462 ft | 433 kts | 81° |
| 2026-05-03 22:14 | 49.04348 | -121.75571 | 22743 ft | 435 kts | 81° |
| 2026-05-03 22:14 | 49.04693 | -121.70997 | 23029 ft | 436 kts | 81° |
| 2026-05-03 22:15 | 49.05036 | -121.66409 | 23323 ft | 438 kts | 81° |
| 2026-05-03 22:15 | 49.05416 | -121.61819 | 23610 ft | 438 kts | 79° |
| 2026-05-03 22:15 | 49.05840 | -121.57233 | 23881 ft | 440 kts | 79° |
| 2026-05-03 22:15 | 49.06275 | -121.52613 | 24143 ft | 441 kts | 79° |
| 2026-05-03 22:16 | 49.06709 | -121.47991 | 24411 ft | 442 kts | 79° |
| 2026-05-03 22:16 | 49.07139 | -121.43349 | 24678 ft | 444 kts | 79° |
| 2026-05-03 22:16 | 49.07563 | -121.38706 | 24918 ft | 445 kts | 79° |
| 2026-05-03 22:16 | 49.07988 | -121.34016 | 25140 ft | 447 kts | 79° |
| 2026-05-03 22:17 | 49.08413 | -121.29309 | 25355 ft | 449 kts | 79° |
| 2026-05-03 22:17 | 49.08837 | -121.24597 | 25562 ft | 451 kts | 79° |
| 2026-05-03 22:17 | 49.09259 | -121.19869 | 25780 ft | 452 kts | 79° |
| 2026-05-03 22:17 | 49.09677 | -121.15145 | 26088 ft | 451 kts | 79° |
| 2026-05-03 22:18 | 49.10092 | -121.10426 | 26457 ft | 449 kts | 79° |
| 2026-05-03 22:18 | 49.10505 | -121.05733 | 26792 ft | 447 kts | 79° |
| 2026-05-03 22:18 | 49.10914 | -121.01052 | 27101 ft | 446 kts | 79° |
| 2026-05-03 22:18 | 49.11320 | -120.96387 | 27433 ft | 445 kts | 79° |
| 2026-05-03 22:19 | 49.11722 | -120.91723 | 27737 ft | 444 kts | 79° |
| 2026-05-03 22:19 | 49.12122 | -120.87074 | 28063 ft | 443 kts | 79° |
| 2026-05-03 22:19 | 49.12520 | -120.82445 | 28368 ft | 442 kts | 79° |
| 2026-05-03 22:19 | 49.12913 | -120.77815 | 28629 ft | 442 kts | 79° |
| 2026-05-03 22:20 | 49.13305 | -120.73191 | 28938 ft | 440 kts | 79° |
| 2026-05-03 22:20 | 49.13697 | -120.68567 | 29202 ft | 440 kts | 79° |
| 2026-05-03 22:20 | 49.14084 | -120.63951 | 29463 ft | 440 kts | 79° |
| 2026-05-03 22:20 | 49.14469 | -120.59342 | 29733 ft | 439 kts | 79° |
| 2026-05-03 22:21 | 49.14853 | -120.54742 | 30024 ft | 438 kts | 79° |
| 2026-05-03 22:21 | 49.15233 | -120.50153 | 30331 ft | 436 kts | 79° |
| 2026-05-03 22:21 | 49.15608 | -120.45571 | 30626 ft | 435 kts | 78° |
| 2026-05-03 22:21 | 49.15980 | -120.41014 | 30925 ft | 433 kts | 78° |
| 2026-05-03 22:22 | 49.16350 | -120.36472 | 31195 ft | 432 kts | 78° |
| 2026-05-03 22:22 | 49.16720 | -120.31933 | 31441 ft | 431 kts | 79° |
| 2026-05-03 22:22 | 49.17087 | -120.27378 | 31690 ft | 431 kts | 79° |
| 2026-05-03 22:22 | 49.17452 | -120.22867 | 31970 ft | 429 kts | 78° |
| 2026-05-03 22:23 | 49.17812 | -120.18361 | 32248 ft | 427 kts | 78° |
| 2026-05-03 22:23 | 49.18168 | -120.13886 | 32521 ft | 425 kts | 78° |
| 2026-05-03 22:23 | 49.18521 | -120.09423 | 32785 ft | 424 kts | 78° |
| 2026-05-03 22:23 | 49.18871 | -120.04978 | 32984 ft | 423 kts | 78° |
| 2026-05-03 22:24 | 49.19222 | -120.00520 | 33160 ft | 424 kts | 78° |
| 2026-05-03 22:24 | 49.19569 | -119.96062 | 33364 ft | 423 kts | 78° |
| 2026-05-03 22:24 | 49.19915 | -119.91609 | 33525 ft | 423 kts | 78° |
| 2026-05-03 22:24 | 49.20259 | -119.87166 | 33683 ft | 423 kts | 78° |
| 2026-05-03 22:25 | 49.20602 | -119.82700 | 33811 ft | 424 kts | 78° |
| 2026-05-03 22:25 | 49.20944 | -119.78233 | 33933 ft | 425 kts | 78° |
| 2026-05-03 22:25 | 49.21285 | -119.73755 | 34081 ft | 425 kts | 78° |
| 2026-05-03 22:25 | 49.21622 | -119.69278 | 34226 ft | 425 kts | 78° |
| 2026-05-03 22:26 | 49.21959 | -119.64805 | 34371 ft | 425 kts | 78° |
| 2026-05-03 22:26 | 49.22293 | -119.60325 | 34506 ft | 425 kts | 78° |
| 2026-05-03 22:26 | 49.22627 | -119.55843 | 34624 ft | 426 kts | 78° |
| 2026-05-03 22:27 | 49.23292 | -119.46839 | 34799 ft | 428 kts | 78° |
| 2026-05-03 22:27 | 49.23954 | -119.37789 | 34990 ft | 430 kts | 78° |
| 2026-05-03 22:28 | 49.24610 | -119.28680 | 35041 ft | 433 kts | 78° |
| 2026-05-03 22:28 | 49.25446 | -119.19623 | 35066 ft | 429 kts | 75° |
| 2026-05-03 22:29 | 49.26534 | -119.10677 | 35044 ft | 430 kts | 75° |
| 2026-05-03 22:29 | 49.27624 | -119.01717 | 35010 ft | 430 kts | 74° |
| 2026-05-03 22:30 | 49.28709 | -118.92726 | 34992 ft | 431 kts | 75° |
| 2026-05-03 22:30 | 49.29788 | -118.83723 | 34999 ft | 432 kts | 75° |
| 2026-05-03 22:31 | 49.30859 | -118.74694 | 35008 ft | 433 kts | 74° |
| 2026-05-03 22:31 | 49.31925 | -118.65647 | 35006 ft | 433 kts | 74° |
| 2026-05-03 22:32 | 49.32986 | -118.56599 | 34996 ft | 433 kts | 75° |
| 2026-05-03 22:32 | 49.34038 | -118.47538 | 34999 ft | 434 kts | 74° |
| 2026-05-03 22:33 | 49.35087 | -118.38444 | 35000 ft | 435 kts | 74° |
| 2026-05-03 22:33 | 49.36140 | -118.29257 | 35002 ft | 436 kts | 75° |
| 2026-05-03 22:34 | 49.37178 | -118.20127 | 35009 ft | 436 kts | 75° |
| 2026-05-03 22:34 | 49.38209 | -118.10995 | 35011 ft | 436 kts | 75° |
| 2026-05-03 22:35 | 49.39236 | -118.01846 | 35006 ft | 437 kts | 75° |
| 2026-05-03 22:35 | 49.40254 | -117.92675 | 35007 ft | 438 kts | 75° |
| 2026-05-03 22:36 | 49.41267 | -117.83491 | 35021 ft | 438 kts | 75° |
| 2026-05-03 22:36 | 49.42274 | -117.74298 | 35033 ft | 438 kts | 75° |
| 2026-05-03 22:37 | 49.43274 | -117.65093 | 35025 ft | 439 kts | 75° |
| 2026-05-03 22:37 | 49.44267 | -117.55875 | 35014 ft | 439 kts | 75° |
| 2026-05-03 22:38 | 49.45257 | -117.46651 | 35005 ft | 440 kts | 75° |
| 2026-05-03 22:38 | 49.46237 | -117.37404 | 35005 ft | 440 kts | 75° |
| 2026-05-03 22:39 | 49.47216 | -117.28117 | 35002 ft | 440 kts | 76° |
| 2026-05-03 22:39 | 49.48186 | -117.18839 | 35013 ft | 440 kts | 76° |
| 2026-05-03 22:40 | 49.49145 | -117.09570 | 35038 ft | 441 kts | 76° |
| 2026-05-03 22:40 | 49.50099 | -117.00286 | 35054 ft | 442 kts | 75° |
| 2026-05-03 22:41 | 49.51052 | -116.90969 | 35054 ft | 443 kts | 76° |
| 2026-05-03 22:41 | 49.51994 | -116.81643 | 35054 ft | 442 kts | 76° |
| 2026-05-03 22:42 | 49.52929 | -116.72308 | 35048 ft | 443 kts | 76° |
| 2026-05-03 22:42 | 49.53859 | -116.62960 | 35049 ft | 444 kts | 76° |
| 2026-05-03 22:43 | 49.54783 | -116.53592 | 35051 ft | 444 kts | 76° |
| 2026-05-03 22:43 | 49.55698 | -116.44223 | 35050 ft | 445 kts | 75° |
| 2026-05-03 22:44 | 49.56610 | -116.34820 | 35048 ft | 444 kts | 76° |
| 2026-05-03 22:44 | 49.57516 | -116.25398 | 35045 ft | 446 kts | 76° |
| 2026-05-03 22:45 | 49.58414 | -116.15974 | 35047 ft | 446 kts | 76° |
| 2026-05-03 22:45 | 49.59302 | -116.06539 | 35098 ft | 447 kts | 76° |
| 2026-05-03 22:46 | 49.60188 | -115.97077 | 35028 ft | 448 kts | 76° |
| 2026-05-03 22:46 | 49.61067 | -115.87597 | 35060 ft | 449 kts | 76° |
| 2026-05-03 22:47 | 49.61938 | -115.78096 | 34986 ft | 449 kts | 76° |
| 2026-05-03 22:47 | 49.62803 | -115.68585 | 34957 ft | 450 kts | 76° |
| 2026-05-03 22:48 | 49.63660 | -115.59078 | 34944 ft | 449 kts | 76° |
| 2026-05-03 22:48 | 49.64510 | -115.49554 | 35000 ft | 450 kts | 76° |
| 2026-05-03 22:49 | 49.65353 | -115.40039 | 34990 ft | 450 kts | 76° |
| 2026-05-03 22:49 | 49.66189 | -115.30473 | 35014 ft | 451 kts | 77° |
| 2026-05-03 22:50 | 49.67022 | -115.20884 | 35111 ft | 452 kts | 77° |
| 2026-05-03 22:50 | 49.67434 | -115.16088 | 35002 ft | 452 kts | 77° |
| 2026-05-03 22:50 | 49.67844 | -115.11304 | 35026 ft | 451 kts | 77° |
| 2026-05-03 22:51 | 49.68655 | -115.01730 | 35037 ft | 452 kts | 77° |
| 2026-05-03 22:51 | 49.69462 | -114.92136 | 35032 ft | 453 kts | 77° |
| 2026-05-03 22:52 | 49.70265 | -114.82523 | 35030 ft | 454 kts | 77° |
| 2026-05-03 22:52 | 49.71061 | -114.72864 | 35028 ft | 455 kts | 77° |
| 2026-05-03 22:53 | 49.71851 | -114.63194 | 35023 ft | 456 kts | 77° |
| 2026-05-03 22:53 | 49.72632 | -114.53523 | 35015 ft | 456 kts | 77° |
| 2026-05-03 22:54 | 49.73406 | -114.43821 | 35005 ft | 458 kts | 77° |
| 2026-05-03 22:54 | 49.74174 | -114.34087 | 35005 ft | 458 kts | 77° |
| 2026-05-03 22:55 | 49.74939 | -114.24328 | 34991 ft | 460 kts | 77° |
| 2026-05-03 22:55 | 49.75694 | -114.14556 | 34987 ft | 460 kts | 78° |
| 2026-05-03 22:56 | 49.76439 | -114.04788 | 34980 ft | 460 kts | 78° |
| 2026-05-03 22:56 | 49.77179 | -113.94998 | 34975 ft | 460 kts | 78° |
| 2026-05-03 22:57 | 49.77906 | -113.85226 | 34968 ft | 460 kts | 77° |
| 2026-05-03 22:57 | 49.78631 | -113.75415 | 34955 ft | 461 kts | 78° |
| 2026-05-03 22:58 | 49.79348 | -113.65594 | 34942 ft | 463 kts | 77° |
| 2026-05-03 22:58 | 49.80058 | -113.55745 | 34929 ft | 462 kts | 77° |
| 2026-05-03 22:59 | 49.80760 | -113.45868 | 34916 ft | 464 kts | 77° |
| 2026-05-03 22:59 | 49.81456 | -113.35974 | 34901 ft | 464 kts | 77° |
| 2026-05-03 23:00 | 49.82145 | -113.26055 | 34901 ft | 464 kts | 78° |
| 2026-05-03 23:00 | 49.82824 | -113.16157 | 34896 ft | 464 kts | 78° |
| 2026-05-03 23:01 | 49.83495 | -113.06259 | 34884 ft | 465 kts | 78° |
| 2026-05-03 23:01 | 49.84158 | -112.96308 | 34881 ft | 466 kts | 78° |
| 2026-05-03 23:02 | 49.84814 | -112.86362 | 34874 ft | 466 kts | 78° |
| 2026-05-03 23:02 | 49.85465 | -112.76379 | 34875 ft | 468 kts | 78° |
| 2026-05-03 23:03 | 49.86104 | -112.66386 | 34870 ft | 468 kts | 78° |
| 2026-05-03 23:03 | 49.86737 | -112.56404 | 34868 ft | 468 kts | 78° |
| 2026-05-03 23:04 | 49.87367 | -112.46368 | 34876 ft | 469 kts | 78° |
| 2026-05-03 23:04 | 49.87983 | -112.36336 | 34877 ft | 469 kts | 78° |
| 2026-05-03 23:05 | 49.88593 | -112.26284 | 34876 ft | 470 kts | 78° |
| 2026-05-03 23:05 | 49.89196 | -112.16220 | 34871 ft | 470 kts | 78° |
| 2026-05-03 23:06 | 49.89791 | -112.06140 | 34869 ft | 472 kts | 78° |
| 2026-05-03 23:06 | 49.90377 | -111.96034 | 34861 ft | 473 kts | 78° |
| 2026-05-03 23:07 | 49.90955 | -111.85924 | 34865 ft | 473 kts | 78° |
| 2026-05-03 23:07 | 49.91526 | -111.75783 | 34863 ft | 474 kts | 78° |
| 2026-05-03 23:08 | 49.92088 | -111.65646 | 34861 ft | 474 kts | 78° |
| 2026-05-03 23:08 | 49.92642 | -111.55472 | 34863 ft | 476 kts | 78° |
| 2026-05-03 23:09 | 49.93185 | -111.45294 | 34858 ft | 475 kts | 78° |
| 2026-05-03 23:09 | 49.93724 | -111.35103 | 34858 ft | 477 kts | 77° |
| 2026-05-03 23:10 | 49.94258 | -111.24854 | 34860 ft | 477 kts | 78° |
| 2026-05-03 23:10 | 49.94779 | -111.14606 | 34857 ft | 479 kts | 78° |
| 2026-05-03 23:11 | 49.95294 | -111.04322 | 34855 ft | 480 kts | 78° |
| 2026-05-03 23:11 | 49.95800 | -110.94023 | 34851 ft | 480 kts | 78° |
| 2026-05-03 23:12 | 49.96297 | -110.83747 | 34849 ft | 480 kts | 78° |
| 2026-05-03 23:12 | 49.96786 | -110.73446 | 34853 ft | 481 kts | 78° |
| 2026-05-03 23:13 | 49.97262 | -110.63119 | 34848 ft | 481 kts | 78° |
| 2026-05-03 23:13 | 49.97735 | -110.52768 | 34849 ft | 483 kts | 78° |
| 2026-05-03 23:14 | 49.98198 | -110.42403 | 34843 ft | 483 kts | 78° |
| 2026-05-03 23:14 | 49.98653 | -110.32042 | 34837 ft | 484 kts | 79° |
| 2026-05-03 23:15 | 49.99099 | -110.21599 | 34838 ft | 485 kts | 78° |
| 2026-05-03 23:15 | 49.99536 | -110.11163 | 34834 ft | 487 kts | 78° |
| 2026-05-03 23:16 | 49.99976 | -110.00690 | 34830 ft | 486 kts | 77° |
| 2026-05-03 23:16 | 50.00741 | -109.90359 | 34829 ft | 484 kts | 75° |
| 2026-05-03 23:17 | 50.01574 | -109.80028 | 34828 ft | 484 kts | 75° |
| 2026-05-03 23:17 | 50.02391 | -109.69677 | 34826 ft | 484 kts | 74° |
| 2026-05-03 23:18 | 50.03197 | -109.59311 | 34822 ft | 486 kts | 74° |
| 2026-05-03 23:18 | 50.03993 | -109.48904 | 34819 ft | 486 kts | 74° |
| 2026-05-03 23:19 | 50.04779 | -109.38497 | 34819 ft | 486 kts | 74° |
| 2026-05-03 23:19 | 50.05559 | -109.28039 | 34822 ft | 488 kts | 75° |
| 2026-05-03 23:20 | 50.06325 | -109.17602 | 34821 ft | 487 kts | 75° |
| 2026-05-03 23:20 | 50.07087 | -109.07145 | 34815 ft | 487 kts | 75° |
| 2026-05-03 23:21 | 50.07835 | -108.96694 | 34809 ft | 487 kts | 75° |
| 2026-05-03 23:21 | 50.08582 | -108.86209 | 34804 ft | 490 kts | 75° |
| 2026-05-03 23:22 | 50.09683 | -108.70399 | 34795 ft | 492 kts | 75° |
| 2026-05-03 23:22 | 50.10406 | -108.59774 | 34792 ft | 491 kts | 75° |
| 2026-05-03 23:23 | 50.11118 | -108.49239 | 34783 ft | 491 kts | 75° |
| 2026-05-03 23:23 | 50.11824 | -108.38672 | 34785 ft | 491 kts | 75° |
| 2026-05-03 23:24 | 50.12523 | -108.28029 | 34779 ft | 493 kts | 76° |
| 2026-05-03 23:24 | 50.13209 | -108.17420 | 34768 ft | 493 kts | 76° |
| 2026-05-03 23:25 | 50.13886 | -108.06822 | 34764 ft | 494 kts | 76° |
| 2026-05-03 23:25 | 50.14559 | -107.96164 | 34768 ft | 497 kts | 76° |
| 2026-05-03 23:26 | 50.15220 | -107.85502 | 34765 ft | 497 kts | 76° |
| 2026-05-03 23:26 | 50.15871 | -107.74832 | 34767 ft | 497 kts | 76° |
| 2026-05-03 23:27 | 50.16517 | -107.64127 | 34766 ft | 499 kts | 76° |
| 2026-05-03 23:27 | 50.17151 | -107.53405 | 34764 ft | 499 kts | 76° |
| 2026-05-03 23:28 | 50.17773 | -107.42690 | 34756 ft | 499 kts | 76° |
| 2026-05-03 23:28 | 50.18394 | -107.31882 | 34754 ft | 500 kts | 76° |
| 2026-05-03 23:29 | 50.19003 | -107.21093 | 34753 ft | 501 kts | 76° |
| 2026-05-03 23:29 | 50.19607 | -107.10280 | 34753 ft | 504 kts | 77° |
| 2026-05-03 23:30 | 50.20196 | -106.99432 | 34735 ft | 504 kts | 76° |
| 2026-05-03 23:30 | 50.20778 | -106.88561 | 34728 ft | 505 kts | 76° |
| 2026-05-03 23:31 | 50.21349 | -106.77675 | 34718 ft | 505 kts | 77° |
| 2026-05-03 23:31 | 50.21912 | -106.66780 | 34715 ft | 505 kts | 77° |
| 2026-05-03 23:32 | 50.22461 | -106.55897 | 34706 ft | 504 kts | 76° |
| 2026-05-03 23:32 | 50.23010 | -106.44983 | 34704 ft | 507 kts | 76° |
| 2026-05-03 23:33 | 50.23541 | -106.34046 | 34707 ft | 506 kts | 77° |
| 2026-05-03 23:33 | 50.24069 | -106.23077 | 34698 ft | 507 kts | 78° |
| 2026-05-03 23:34 | 50.24580 | -106.12113 | 34693 ft | 509 kts | 77° |
| 2026-05-03 23:34 | 50.25084 | -106.01145 | 34683 ft | 509 kts | 77° |
| 2026-05-03 23:35 | 50.25578 | -105.90146 | 34684 ft | 508 kts | 77° |
| 2026-05-03 23:35 | 50.26066 | -105.79165 | 34674 ft | 510 kts | 77° |
| 2026-05-03 23:36 | 50.26538 | -105.68134 | 34670 ft | 510 kts | 77° |
| 2026-05-03 23:36 | 50.27000 | -105.57124 | 34666 ft | 510 kts | 77° |
| 2026-05-03 23:37 | 50.27454 | -105.46115 | 34663 ft | 510 kts | 78° |
| 2026-05-03 23:37 | 50.27902 | -105.35057 | 34654 ft | 512 kts | 78° |
| 2026-05-03 23:38 | 50.28339 | -105.23894 | 34640 ft | 513 kts | 79° |
| 2026-05-03 23:38 | 50.28763 | -105.12819 | 34638 ft | 513 kts | 79° |
| 2026-05-03 23:39 | 50.29180 | -105.01689 | 34622 ft | 515 kts | 79° |
| 2026-05-03 23:39 | 50.29586 | -104.90562 | 34624 ft | 515 kts | 79° |
| 2026-05-03 23:40 | 50.29976 | -104.79410 | 34625 ft | 514 kts | 79° |
| 2026-05-03 23:40 | 50.30361 | -104.68299 | 34620 ft | 515 kts | 79° |
| 2026-05-03 23:41 | 50.30736 | -104.57149 | 34621 ft | 516 kts | 79° |
| 2026-05-03 23:41 | 50.31096 | -104.46002 | 34620 ft | 514 kts | 79° |
| 2026-05-03 23:42 | 50.31453 | -104.34862 | 34598 ft | 516 kts | 80° |
| 2026-05-03 23:42 | 50.31802 | -104.23603 | 34608 ft | 518 kts | 80° |
| 2026-05-03 23:43 | 50.32132 | -104.12400 | 34606 ft | 517 kts | 80° |
| 2026-05-03 23:43 | 50.32458 | -104.01166 | 34598 ft | 520 kts | 80° |
| 2026-05-03 23:44 | 50.32767 | -103.89922 | 34608 ft | 518 kts | 81° |
| 2026-05-03 23:44 | 50.33068 | -103.78681 | 34597 ft | 518 kts | 81° |
| 2026-05-03 23:45 | 50.33363 | -103.67439 | 34585 ft | 520 kts | 81° |
| 2026-05-03 23:45 | 50.33645 | -103.56160 | 34582 ft | 520 kts | 81° |
| 2026-05-03 23:46 | 50.33909 | -103.44858 | 34590 ft | 519 kts | 81° |
| 2026-05-03 23:46 | 50.34166 | -103.33611 | 34583 ft | 519 kts | 82° |
| 2026-05-03 23:47 | 50.34418 | -103.22278 | 34568 ft | 520 kts | 83° |
| 2026-05-03 23:47 | 50.34651 | -103.11013 | 34580 ft | 521 kts | 82° |
| 2026-05-03 23:48 | 50.34879 | -102.99736 | 34552 ft | 520 kts | 82° |
| 2026-05-03 23:48 | 50.35093 | -102.88434 | 34587 ft | 522 kts | 83° |
| 2026-05-03 23:49 | 50.35292 | -102.77133 | 34557 ft | 521 kts | 82° |
| 2026-05-03 23:49 | 50.35486 | -102.65841 | 34566 ft | 523 kts | 83° |
| 2026-05-03 23:50 | 50.35638 | -102.56388 | 34558 ft | 523 kts | 83° |
| 2026-05-03 23:50 | 50.35375 | -102.43098 | 34555 ft | 529 kts | 91° |
| 2026-05-03 23:51 | 50.34640 | -102.31677 | 34552 ft | 529 kts | 92° |
| 2026-05-03 23:51 | 50.33882 | -102.20210 | 34565 ft | 529 kts | 91° |
| 2026-05-03 23:52 | 50.33130 | -102.08779 | 34538 ft | 530 kts | 92° |
| 2026-05-03 23:52 | 50.32375 | -101.97344 | 34532 ft | 531 kts | 92° |
| 2026-05-03 23:53 | 50.31605 | -101.85890 | 34518 ft | 532 kts | 91° |
| 2026-05-03 23:53 | 50.30828 | -101.74430 | 34499 ft | 530 kts | 92° |
| 2026-05-03 23:54 | 50.30038 | -101.63003 | 34513 ft | 530 kts | 92° |
| 2026-05-03 23:54 | 50.29233 | -101.51528 | 34516 ft | 530 kts | 92° |
| 2026-05-03 23:55 | 50.28425 | -101.40118 | 34494 ft | 531 kts | 92° |
| 2026-05-03 23:55 | 50.27598 | -101.28652 | 34483 ft | 531 kts | 93° |
| 2026-05-03 23:56 | 50.26760 | -101.17194 | 34526 ft | 531 kts | 92° |
| 2026-05-03 23:56 | 50.25920 | -101.05780 | 34466 ft | 530 kts | 93° |
| 2026-05-03 23:57 | 50.25064 | -100.94346 | 34493 ft | 531 kts | 93° |
| 2026-05-03 23:57 | 50.24194 | -100.82923 | 34494 ft | 529 kts | 93° |
| 2026-05-03 23:58 | 50.23314 | -100.71522 | 34502 ft | 527 kts | 92° |
| 2026-05-03 23:58 | 50.22436 | -100.60194 | 34478 ft | 527 kts | 93° |
| 2026-05-03 23:59 | 50.21539 | -100.48873 | 34476 ft | 526 kts | 93° |
| 2026-05-03 23:59 | 50.20637 | -100.37576 | 34467 ft | 526 kts | 94° |
| 2026-05-04 00:00 | 50.19718 | -100.26244 | 34443 ft | 525 kts | 94° |
| 2026-05-04 00:00 | 50.18819 | -100.15302 | 34454 ft | 524 kts | 95° |
| 2026-05-04 00:01 | 50.17891 | -100.04069 | 34433 ft | 523 kts | 95° |
| 2026-05-04 00:01 | 50.16945 | -99.92884 | 34456 ft | 522 kts | 94° |
| 2026-05-04 00:02 | 50.15995 | -99.81710 | 34466 ft | 521 kts | 94° |
| 2026-05-04 00:02 | 50.15038 | -99.70553 | 34481 ft | 523 kts | 94° |
| 2026-05-04 00:03 | 50.14067 | -99.59357 | 34466 ft | 524 kts | 95° |
| 2026-05-04 00:03 | 50.13080 | -99.48169 | 34467 ft | 523 kts | 95° |
| 2026-05-04 00:04 | 50.12085 | -99.36989 | 34456 ft | 524 kts | 95° |
| 2026-05-04 00:04 | 50.11074 | -99.25751 | 34477 ft | 524 kts | 96° |
| 2026-05-04 00:05 | 50.10055 | -99.14558 | 34453 ft | 524 kts | 96° |
| 2026-05-04 00:05 | 50.09027 | -99.03376 | 34448 ft | 524 kts | 96° |
| 2026-05-04 00:06 | 50.07984 | -98.92193 | 34451 ft | 523 kts | 96° |
| 2026-05-04 00:06 | 50.06940 | -98.81036 | 34441 ft | 524 kts | 96° |
| 2026-05-04 00:07 | 50.05880 | -98.69900 | 34456 ft | 522 kts | 95° |
| 2026-05-04 00:07 | 50.04813 | -98.58779 | 34426 ft | 522 kts | 96° |
| 2026-05-04 00:08 | 50.03738 | -98.47661 | 34438 ft | 522 kts | 96° |
| 2026-05-04 00:08 | 50.02650 | -98.36554 | 34406 ft | 522 kts | 96° |
| 2026-05-04 00:09 | 50.01545 | -98.25407 | 34402 ft | 522 kts | 97° |
| 2026-05-04 00:09 | 50.00431 | -98.14290 | 34395 ft | 523 kts | 97° |
| 2026-05-04 00:10 | 49.99310 | -98.03170 | 34397 ft | 523 kts | 97° |
| 2026-05-04 00:10 | 49.98179 | -97.92046 | 34397 ft | 523 kts | 97° |
| 2026-05-04 00:11 | 49.97033 | -97.80949 | 34409 ft | 522 kts | 97° |
| 2026-05-04 00:11 | 49.95880 | -97.69880 | 34394 ft | 520 kts | 97° |
| 2026-05-04 00:12 | 49.94719 | -97.58820 | 34401 ft | 520 kts | 97° |
| 2026-05-04 00:12 | 49.93548 | -97.47777 | 34401 ft | 518 kts | 97° |
| 2026-05-04 00:13 | 49.92370 | -97.36789 | 34408 ft | 518 kts | 97° |
| 2026-05-04 00:13 | 49.91171 | -97.25803 | 34408 ft | 518 kts | 99° |
| 2026-05-04 00:14 | 49.89479 | -97.14970 | 34413 ft | 518 kts | 104° |
| 2026-05-04 00:14 | 49.87583 | -97.04205 | 34405 ft | 518 kts | 104° |
| 2026-05-04 00:15 | 49.85694 | -96.93493 | 34399 ft | 516 kts | 104° |
| 2026-05-04 00:15 | 49.83807 | -96.82797 | 34401 ft | 517 kts | 104° |
| 2026-05-04 00:16 | 49.81913 | -96.72096 | 34397 ft | 518 kts | 104° |
| 2026-05-04 00:16 | 49.80009 | -96.61387 | 34393 ft | 518 kts | 104° |
| 2026-05-04 00:17 | 49.78093 | -96.50685 | 34388 ft | 518 kts | 104° |
| 2026-05-04 00:17 | 49.76168 | -96.39997 | 34405 ft | 518 kts | 104° |
| 2026-05-04 00:18 | 49.74228 | -96.29278 | 34408 ft | 519 kts | 104° |
| 2026-05-04 00:18 | 49.72273 | -96.18557 | 34410 ft | 520 kts | 104° |
| 2026-05-04 00:19 | 49.70317 | -96.07880 | 34406 ft | 519 kts | 104° |
| 2026-05-04 00:19 | 49.68348 | -95.97185 | 34400 ft | 520 kts | 105° |
| 2026-05-04 00:20 | 49.66366 | -95.86504 | 34405 ft | 520 kts | 104° |
| 2026-05-04 00:20 | 49.64374 | -95.75829 | 34411 ft | 519 kts | 104° |
| 2026-05-04 00:21 | 49.62374 | -95.65185 | 34419 ft | 519 kts | 104° |
| 2026-05-04 00:21 | 49.60368 | -95.54541 | 34422 ft | 519 kts | 104° |
| 2026-05-04 00:22 | 49.58353 | -95.43910 | 34424 ft | 518 kts | 104° |
| 2026-05-04 00:22 | 49.56328 | -95.33302 | 34430 ft | 518 kts | 105° |
| 2026-05-04 00:23 | 49.54290 | -95.22683 | 34441 ft | 519 kts | 104° |
| 2026-05-04 00:23 | 49.52243 | -95.12066 | 34439 ft | 519 kts | 105° |
| 2026-05-04 00:24 | 49.50188 | -95.01482 | 34441 ft | 518 kts | 104° |
| 2026-05-04 00:24 | 49.48128 | -94.90911 | 34448 ft | 518 kts | 104° |
| 2026-05-04 00:25 | 49.46060 | -94.80357 | 34449 ft | 517 kts | 104° |
| 2026-05-04 00:25 | 49.43976 | -94.69801 | 34453 ft | 518 kts | 104° |
| 2026-05-04 00:26 | 49.41888 | -94.59275 | 34459 ft | 517 kts | 104° |
| 2026-05-04 00:26 | 49.39796 | -94.48773 | 34463 ft | 516 kts | 104° |
| 2026-05-04 00:27 | 49.37691 | -94.38275 | 34466 ft | 516 kts | 104° |
| 2026-05-04 00:27 | 49.35581 | -94.27784 | 34462 ft | 516 kts | 105° |
| 2026-05-04 00:28 | 49.33460 | -94.17323 | 34458 ft | 516 kts | 105° |
| 2026-05-04 00:28 | 49.31329 | -94.06868 | 34464 ft | 516 kts | 105° |
| 2026-05-04 00:29 | 49.29192 | -93.96426 | 34463 ft | 516 kts | 105° |
| 2026-05-04 00:29 | 49.27046 | -93.86000 | 34459 ft | 515 kts | 105° |
| 2026-05-04 00:30 | 49.24892 | -93.75603 | 34458 ft | 514 kts | 104° |
| 2026-05-04 00:30 | 49.22732 | -93.65213 | 34459 ft | 514 kts | 104° |
| 2026-05-04 00:31 | 49.20562 | -93.54842 | 34470 ft | 514 kts | 104° |
| 2026-05-04 00:31 | 49.18389 | -93.44481 | 34471 ft | 514 kts | 104° |
| 2026-05-04 00:32 | 49.16200 | -93.34129 | 34476 ft | 513 kts | 105° |
| 2026-05-04 00:32 | 49.14007 | -93.23782 | 34474 ft | 515 kts | 105° |
| 2026-05-04 00:33 | 49.10697 | -93.08298 | 34472 ft | 513 kts | 105° |
| 2026-05-04 00:34 | 49.08481 | -92.97989 | 34472 ft | 514 kts | 105° |
| 2026-05-04 00:34 | 49.06241 | -92.87640 | 34475 ft | 514 kts | 105° |
| 2026-05-04 00:35 | 49.04000 | -92.77328 | 34483 ft | 513 kts | 105° |
| 2026-05-04 00:35 | 49.01762 | -92.67058 | 34480 ft | 513 kts | 105° |
| 2026-05-04 00:36 | 48.99511 | -92.56797 | 34472 ft | 513 kts | 105° |
| 2026-05-04 00:36 | 48.97251 | -92.46549 | 34473 ft | 513 kts | 105° |
| 2026-05-04 00:37 | 48.94984 | -92.36317 | 34474 ft | 512 kts | 105° |
| 2026-05-04 00:37 | 48.92700 | -92.26062 | 34481 ft | 511 kts | 105° |
| 2026-05-04 00:38 | 48.90452 | -92.16007 | 34493 ft | 511 kts | 105° |
| 2026-05-04 00:38 | 48.88157 | -92.05786 | 34492 ft | 511 kts | 106° |
| 2026-05-04 00:39 | 48.85888 | -91.95751 | 34498 ft | 510 kts | 105° |
| 2026-05-04 00:39 | 48.83579 | -91.85580 | 34505 ft | 510 kts | 105° |
| 2026-05-04 00:40 | 48.81263 | -91.75427 | 34503 ft | 509 kts | 105° |
| 2026-05-04 00:40 | 48.78945 | -91.65310 | 34506 ft | 509 kts | 105° |
| 2026-05-04 00:41 | 48.76616 | -91.55183 | 34520 ft | 508 kts | 105° |
| 2026-05-04 00:41 | 48.74286 | -91.45111 | 34522 ft | 508 kts | 105° |
| 2026-05-04 00:42 | 48.71947 | -91.35050 | 34523 ft | 508 kts | 105° |
| 2026-05-04 00:42 | 48.69594 | -91.24972 | 34529 ft | 508 kts | 106° |
| 2026-05-04 00:43 | 48.67234 | -91.14906 | 34534 ft | 508 kts | 106° |
| 2026-05-04 00:43 | 48.64860 | -91.04843 | 34538 ft | 506 kts | 106° |
| 2026-05-04 00:44 | 48.62494 | -90.94844 | 34533 ft | 506 kts | 106° |
| 2026-05-04 00:44 | 48.60110 | -90.84823 | 34529 ft | 505 kts | 106° |
| 2026-05-04 00:45 | 48.57734 | -90.74877 | 34534 ft | 505 kts | 105° |
| 2026-05-04 00:45 | 48.55341 | -90.64905 | 34533 ft | 504 kts | 106° |
| 2026-05-04 00:46 | 48.52944 | -90.54969 | 34542 ft | 504 kts | 106° |
| 2026-05-04 00:46 | 48.50545 | -90.45061 | 34540 ft | 503 kts | 105° |
| 2026-05-04 00:47 | 48.48142 | -90.35177 | 34541 ft | 503 kts | 105° |
| 2026-05-04 00:47 | 48.45800 | -90.25597 | 34544 ft | 504 kts | 107° |
| 2026-05-04 00:48 | 48.43364 | -90.15672 | 34552 ft | 504 kts | 106° |
| 2026-05-04 00:48 | 48.40925 | -90.05777 | 34546 ft | 504 kts | 106° |
| 2026-05-04 00:49 | 48.38479 | -89.95892 | 34559 ft | 504 kts | 106° |
| 2026-05-04 00:49 | 48.36030 | -89.86056 | 34553 ft | 504 kts | 106° |
| 2026-05-04 00:50 | 48.33577 | -89.76231 | 34561 ft | 504 kts | 107° |
| 2026-05-04 00:50 | 48.31109 | -89.66406 | 34557 ft | 503 kts | 106° |
| 2026-05-04 00:51 | 48.28637 | -89.56594 | 34573 ft | 503 kts | 106° |
| 2026-05-04 00:51 | 48.26162 | -89.46823 | 34563 ft | 502 kts | 107° |
| 2026-05-04 00:52 | 48.23522 | -89.37120 | 34581 ft | 504 kts | 109° |
| 2026-05-04 00:52 | 48.20813 | -89.27624 | 34573 ft | 504 kts | 110° |
| 2026-05-04 00:53 | 48.18054 | -89.18002 | 34581 ft | 505 kts | 110° |
| 2026-05-04 00:53 | 48.15287 | -89.08369 | 34576 ft | 505 kts | 110° |
| 2026-05-04 00:54 | 48.12507 | -88.98725 | 34571 ft | 505 kts | 110° |
| 2026-05-04 00:54 | 48.09732 | -88.89133 | 34600 ft | 504 kts | 110° |
| 2026-05-04 00:55 | 48.06952 | -88.79565 | 34589 ft | 503 kts | 110° |
| 2026-05-04 00:55 | 48.04172 | -88.70029 | 34601 ft | 502 kts | 110° |
| 2026-05-04 00:56 | 48.01385 | -88.60514 | 34580 ft | 501 kts | 110° |
| 2026-05-04 00:56 | 47.98594 | -88.51016 | 34589 ft | 501 kts | 110° |
| 2026-05-04 00:57 | 47.95798 | -88.41535 | 34600 ft | 501 kts | 110° |
| 2026-05-04 00:57 | 47.92997 | -88.32083 | 34588 ft | 500 kts | 111° |
| 2026-05-04 00:58 | 47.90193 | -88.22645 | 34583 ft | 499 kts | 111° |
| 2026-05-04 00:58 | 47.87384 | -88.13235 | 34592 ft | 498 kts | 111° |
| 2026-05-04 00:59 | 47.84564 | -88.03824 | 34604 ft | 499 kts | 111° |
| 2026-05-04 00:59 | 47.81742 | -87.94445 | 34608 ft | 498 kts | 111° |
| 2026-05-04 01:00 | 47.78916 | -87.85083 | 34604 ft | 498 kts | 111° |
| 2026-05-04 01:00 | 47.76075 | -87.75714 | 34615 ft | 498 kts | 111° |
| 2026-05-04 01:01 | 47.73231 | -87.66364 | 34615 ft | 498 kts | 111° |
| 2026-05-04 01:01 | 47.70382 | -87.57028 | 34606 ft | 499 kts | 111° |
| 2026-05-04 01:02 | 47.67523 | -87.47707 | 34612 ft | 498 kts | 111° |
| 2026-05-04 01:02 | 47.64650 | -87.38364 | 34607 ft | 498 kts | 111° |
| 2026-05-04 01:03 | 47.61760 | -87.29000 | 34615 ft | 497 kts | 112° |
| 2026-05-04 01:03 | 47.58902 | -87.19783 | 34229 ft | 491 kts | 112° |
| 2026-05-04 01:03 | 47.57474 | -87.15195 | 33612 ft | 494 kts | 112° |
| 2026-05-04 01:04 | 47.56040 | -87.10587 | 33074 ft | 498 kts | 112° |
| 2026-05-04 01:04 | 47.54580 | -87.05910 | 32732 ft | 502 kts | 111° |
| 2026-05-04 01:04 | 47.53113 | -87.01216 | 32636 ft | 503 kts | 111° |
| 2026-05-04 01:05 | 47.50167 | -86.91808 | 32624 ft | 504 kts | 112° |
| 2026-05-04 01:05 | 47.47219 | -86.82429 | 32623 ft | 504 kts | 111° |
| 2026-05-04 01:06 | 47.44266 | -86.73078 | 32621 ft | 504 kts | 111° |
| 2026-05-04 01:06 | 47.41387 | -86.63991 | 32620 ft | 503 kts | 112° |
| 2026-05-04 01:07 | 47.41300 | -86.63718 | 32620 ft | 503 kts | 111° |
| 2026-05-04 01:07 | 47.38402 | -86.54607 | 32620 ft | 504 kts | 111° |
| 2026-05-04 01:08 | 47.35424 | -86.45283 | 32622 ft | 504 kts | 111° |
| 2026-05-04 01:08 | 47.32447 | -86.35983 | 32619 ft | 504 kts | 112° |
| 2026-05-04 01:09 | 47.29454 | -86.26673 | 32620 ft | 503 kts | 112° |
| 2026-05-04 01:09 | 47.26447 | -86.17362 | 32620 ft | 504 kts | 112° |
| 2026-05-04 01:10 | 47.23439 | -86.08074 | 32618 ft | 505 kts | 112° |
| 2026-05-04 01:10 | 47.20427 | -85.98814 | 32620 ft | 504 kts | 112° |
| 2026-05-04 01:11 | 47.17408 | -85.89551 | 32622 ft | 504 kts | 112° |
| 2026-05-04 01:11 | 47.14382 | -85.80308 | 32624 ft | 504 kts | 112° |
| 2026-05-04 01:12 | 47.11331 | -85.71022 | 32625 ft | 504 kts | 113° |
| 2026-05-04 01:12 | 47.08291 | -85.61806 | 32628 ft | 503 kts | 113° |
| 2026-05-04 01:13 | 47.05250 | -85.52614 | 32626 ft | 503 kts | 113° |
| 2026-05-04 01:13 | 47.02200 | -85.43427 | 32630 ft | 503 kts | 113° |
| 2026-05-04 01:14 | 46.99146 | -85.34273 | 32630 ft | 502 kts | 114° |
| 2026-05-04 01:14 | 46.96080 | -85.25108 | 32629 ft | 503 kts | 114° |
| 2026-05-04 01:15 | 46.93010 | -85.15959 | 32639 ft | 502 kts | 114° |
| 2026-05-04 01:15 | 46.89925 | -85.06799 | 32632 ft | 502 kts | 114° |
| 2026-05-04 01:16 | 46.86835 | -84.97663 | 32637 ft | 502 kts | 114° |
| 2026-05-04 01:16 | 46.83747 | -84.88558 | 32653 ft | 502 kts | 115° |
| 2026-05-04 01:17 | 46.80646 | -84.79452 | 32649 ft | 501 kts | 115° |
| 2026-05-04 01:17 | 46.77540 | -84.70364 | 32657 ft | 501 kts | 115° |
| 2026-05-04 01:18 | 46.74430 | -84.61289 | 32650 ft | 501 kts | 115° |
| 2026-05-04 01:18 | 46.71318 | -84.52240 | 32650 ft | 501 kts | 115° |
| 2026-05-04 01:19 | 46.68186 | -84.43169 | 32652 ft | 501 kts | 115° |
| 2026-05-04 01:19 | 46.65053 | -84.34125 | 32658 ft | 501 kts | 116° |
| 2026-05-04 01:20 | 46.61908 | -84.25069 | 32661 ft | 501 kts | 116° |
| 2026-05-04 01:20 | 46.58746 | -84.16006 | 32658 ft | 501 kts | 116° |
| 2026-05-04 01:21 | 46.55593 | -84.07002 | 32653 ft | 501 kts | 116° |
| 2026-05-04 01:21 | 46.52438 | -83.98019 | 32646 ft | 500 kts | 116° |
| 2026-05-04 01:22 | 46.49275 | -83.89039 | 32645 ft | 501 kts | 116° |
| 2026-05-04 01:22 | 46.46097 | -83.80054 | 32644 ft | 501 kts | 116° |
| 2026-05-04 01:23 | 46.42906 | -83.71059 | 32648 ft | 502 kts | 116° |
| 2026-05-04 01:23 | 46.39522 | -83.62243 | 32650 ft | 501 kts | 122° |
| 2026-05-04 01:24 | 46.35564 | -83.53966 | 32653 ft | 501 kts | 125° |
| 2026-05-04 01:24 | 46.31515 | -83.45769 | 32654 ft | 501 kts | 125° |
| 2026-05-04 01:25 | 46.27476 | -83.37585 | 32652 ft | 501 kts | 125° |
| 2026-05-04 01:25 | 46.23436 | -83.29396 | 32655 ft | 501 kts | 126° |
| 2026-05-04 01:26 | 46.19392 | -83.21220 | 32660 ft | 500 kts | 126° |
| 2026-05-04 01:26 | 46.15346 | -83.13064 | 32653 ft | 500 kts | 126° |
| 2026-05-04 01:27 | 46.11299 | -83.04933 | 32658 ft | 499 kts | 126° |
| 2026-05-04 01:27 | 46.07249 | -82.96812 | 32668 ft | 499 kts | 126° |
| 2026-05-04 01:28 | 46.03194 | -82.88712 | 32667 ft | 499 kts | 126° |
| 2026-05-04 01:28 | 45.99124 | -82.80599 | 32672 ft | 498 kts | 126° |
| 2026-05-04 01:29 | 45.95059 | -82.72522 | 32676 ft | 498 kts | 126° |
| 2026-05-04 01:29 | 45.90987 | -82.64457 | 32684 ft | 498 kts | 126° |
| 2026-05-04 01:30 | 45.86927 | -82.56440 | 32685 ft | 498 kts | 126° |
| 2026-05-04 01:30 | 45.82938 | -82.48587 | 32682 ft | 498 kts | 126° |
| 2026-05-04 01:31 | 45.78843 | -82.40538 | 32680 ft | 498 kts | 126° |
| 2026-05-04 01:31 | 45.74767 | -82.32551 | 32675 ft | 498 kts | 127° |
| 2026-05-04 01:32 | 45.70683 | -82.24575 | 32681 ft | 497 kts | 127° |
| 2026-05-04 01:32 | 45.66594 | -82.16613 | 32676 ft | 497 kts | 127° |
| 2026-05-04 01:33 | 45.62439 | -82.08732 | 32672 ft | 496 kts | 130° |
| 2026-05-04 01:33 | 45.57759 | -82.01581 | 32679 ft | 494 kts | 138° |
| 2026-05-04 01:34 | 45.52760 | -81.94901 | 32688 ft | 493 kts | 139° |
| 2026-05-04 01:34 | 45.47732 | -81.88211 | 32695 ft | 494 kts | 139° |
| 2026-05-04 01:35 | 45.42711 | -81.81521 | 32696 ft | 493 kts | 139° |
| 2026-05-04 01:35 | 45.37707 | -81.74860 | 32698 ft | 492 kts | 139° |
| 2026-05-04 01:36 | 45.32692 | -81.68205 | 32697 ft | 492 kts | 139° |
| 2026-05-04 01:36 | 45.27656 | -81.61537 | 32705 ft | 493 kts | 139° |
| 2026-05-04 01:37 | 45.22643 | -81.54913 | 32717 ft | 492 kts | 139° |
| 2026-05-04 01:37 | 45.17628 | -81.48302 | 32715 ft | 492 kts | 139° |
| 2026-05-04 01:38 | 45.12666 | -81.41779 | 32263 ft | 485 kts | 139° |
| 2026-05-04 01:38 | 45.10184 | -81.38522 | 31495 ft | 488 kts | 139° |
| 2026-05-04 01:38 | 45.07690 | -81.35257 | 30582 ft | 492 kts | 139° |
| 2026-05-04 01:38 | 45.05176 | -81.31968 | 29689 ft | 494 kts | 140° |
| 2026-05-04 01:39 | 45.02675 | -81.28700 | 29095 ft | 489 kts | 140° |
| 2026-05-04 01:39 | 45.00199 | -81.25468 | 28498 ft | 484 kts | 139° |
| 2026-05-04 01:39 | 44.97957 | -81.22545 | 27792 ft | 483 kts | 140° |
| 2026-05-04 01:39 | 44.95479 | -81.19319 | 26871 ft | 486 kts | 140° |
| 2026-05-04 01:40 | 44.93082 | -81.16201 | 25962 ft | 487 kts | 139° |
| 2026-05-04 01:40 | 44.90591 | -81.12967 | 25004 ft | 489 kts | 140° |
| 2026-05-04 01:40 | 44.88106 | -81.09744 | 24225 ft | 485 kts | 140° |
| 2026-05-04 01:40 | 44.85648 | -81.06556 | 23637 ft | 478 kts | 140° |
| 2026-05-04 01:41 | 44.83231 | -81.03424 | 22997 ft | 472 kts | 140° |
| 2026-05-04 01:41 | 44.80831 | -81.00321 | 22323 ft | 467 kts | 140° |
| 2026-05-04 01:41 | 44.78806 | -80.97706 | 21760 ft | 463 kts | 140° |
| 2026-05-04 01:41 | 44.76417 | -80.94625 | 21099 ft | 458 kts | 140° |
| 2026-05-04 01:42 | 44.74072 | -80.91604 | 20453 ft | 454 kts | 140° |
| 2026-05-04 01:42 | 44.71829 | -80.88717 | 19870 ft | 449 kts | 140° |
| 2026-05-04 01:42 | 44.69596 | -80.85849 | 19259 ft | 445 kts | 140° |
| 2026-05-04 01:42 | 44.67319 | -80.82926 | 18643 ft | 441 kts | 140° |
| 2026-05-04 01:43 | 44.65064 | -80.80036 | 18068 ft | 436 kts | 140° |
| 2026-05-04 01:43 | 44.62837 | -80.77183 | 17777 ft | 433 kts | 140° |
| 2026-05-04 01:43 | 44.60604 | -80.74328 | 17728 ft | 434 kts | 140° |
| 2026-05-04 01:43 | 44.58366 | -80.71467 | 17735 ft | 434 kts | 140° |
| 2026-05-04 01:44 | 44.56130 | -80.68611 | 17746 ft | 434 kts | 140° |
| 2026-05-04 01:44 | 44.53890 | -80.65753 | 17741 ft | 435 kts | 140° |
| 2026-05-04 01:44 | 44.51656 | -80.62905 | 17747 ft | 434 kts | 140° |
| 2026-05-04 01:44 | 44.49420 | -80.60057 | 17752 ft | 434 kts | 140° |
| 2026-05-04 01:45 | 44.47184 | -80.57214 | 17738 ft | 435 kts | 140° |
| 2026-05-04 01:45 | 44.44948 | -80.54374 | 17749 ft | 434 kts | 140° |
| 2026-05-04 01:45 | 44.40502 | -80.48735 | 17477 ft | 426 kts | 140° |
| 2026-05-04 01:46 | 44.38306 | -80.45955 | 16827 ft | 425 kts | 140° |
| 2026-05-04 01:46 | 44.36127 | -80.43199 | 16197 ft | 423 kts | 140° |
| 2026-05-04 01:46 | 44.33958 | -80.40458 | 15619 ft | 420 kts | 140° |
| 2026-05-04 01:46 | 44.31804 | -80.37740 | 15059 ft | 416 kts | 140° |
| 2026-05-04 01:47 | 44.29670 | -80.35049 | 14513 ft | 412 kts | 140° |
| 2026-05-04 01:47 | 44.27556 | -80.32389 | 13967 ft | 408 kts | 141° |
| 2026-05-04 01:47 | 44.25458 | -80.29750 | 13419 ft | 405 kts | 141° |
| 2026-05-04 01:47 | 44.23375 | -80.27134 | 12849 ft | 401 kts | 141° |
| 2026-05-04 01:48 | 44.21314 | -80.24546 | 12277 ft | 398 kts | 141° |
| 2026-05-04 01:48 | 44.19340 | -80.22071 | 11729 ft | 395 kts | 141° |
| 2026-05-04 01:48 | 44.17854 | -80.20208 | 11329 ft | 392 kts | 141° |
| 2026-05-04 01:48 | 44.15842 | -80.17684 | 10760 ft | 388 kts | 141° |
| 2026-05-04 01:49 | 44.13976 | -80.15340 | 10373 ft | 380 kts | 141° |
| 2026-05-04 01:49 | 44.12249 | -80.13172 | 10174 ft | 369 kts | 141° |
| 2026-05-04 01:49 | 44.10362 | -80.10807 | 9983 ft | 356 kts | 141° |
| 2026-05-04 01:49 | 44.08566 | -80.08557 | 9952 ft | 338 kts | 141° |
| 2026-05-04 01:50 | 44.06848 | -80.06408 | 9812 ft | 326 kts | 141° |
| 2026-05-04 01:50 | 44.05176 | -80.04320 | 9615 ft | 316 kts | 142° |
| 2026-05-04 01:50 | 44.03570 | -80.02317 | 9413 ft | 307 kts | 142° |
| 2026-05-04 01:50 | 44.01949 | -80.00392 | 9076 ft | 303 kts | 146° |
| 2026-05-04 01:51 | 44.00243 | -79.98692 | 8664 ft | 300 kts | 151° |
| 2026-05-04 01:51 | 43.98492 | -79.97134 | 8284 ft | 298 kts | 152° |
| 2026-05-04 01:51 | 43.96747 | -79.95601 | 7985 ft | 294 kts | 152° |
| 2026-05-04 01:51 | 43.95010 | -79.94077 | 7954 ft | 296 kts | 153° |
| 2026-05-04 01:52 | 43.93263 | -79.92541 | 7952 ft | 297 kts | 153° |
| 2026-05-04 01:52 | 43.91509 | -79.90995 | 7943 ft | 297 kts | 153° |
| 2026-05-04 01:52 | 43.89757 | -79.89445 | 7956 ft | 296 kts | 153° |
| 2026-05-04 01:52 | 43.88038 | -79.87921 | 7952 ft | 283 kts | 153° |
| 2026-05-04 01:53 | 43.86439 | -79.86502 | 7954 ft | 268 kts | 153° |
| 2026-05-04 01:53 | 43.84891 | -79.85078 | 7964 ft | 269 kts | 149° |
| 2026-05-04 01:53 | 43.83726 | -79.83768 | 7970 ft | 271 kts | 143° |
| 2026-05-04 01:53 | 43.82318 | -79.81955 | 7972 ft | 272 kts | 141° |
| 2026-05-04 01:54 | 43.80997 | -79.80201 | 7976 ft | 272 kts | 141° |
| 2026-05-04 01:54 | 43.79652 | -79.78412 | 7974 ft | 271 kts | 141° |
| 2026-05-04 01:54 | 43.78264 | -79.76572 | 7893 ft | 268 kts | 142° |
| 2026-05-04 01:54 | 43.77169 | -79.75128 | 7605 ft | 268 kts | 141° |
| 2026-05-04 01:55 | 43.76012 | -79.73077 | 7178 ft | 279 kts | 114° |
| 2026-05-04 01:55 | 43.75788 | -79.70418 | 6823 ft | 280 kts | 76° |
| 2026-05-04 01:55 | 43.76645 | -79.68151 | 6669 ft | 254 kts | 39° |
| 2026-05-04 01:55 | 43.77963 | -79.66691 | 6524 ft | 236 kts | 28° |
| 2026-05-04 01:56 | 43.79281 | -79.65330 | 6098 ft | 238 kts | 31° |
| 2026-05-04 01:56 | 43.80528 | -79.63858 | 5815 ft | 232 kts | 35° |
| 2026-05-04 01:56 | 43.81692 | -79.62328 | 5478 ft | 230 kts | 38° |
| 2026-05-04 01:56 | 43.82817 | -79.60754 | 5094 ft | 229 kts | 39° |
| 2026-05-04 01:57 | 43.83923 | -79.59158 | 4713 ft | 229 kts | 40° |
| 2026-05-04 01:57 | 43.85015 | -79.57564 | 4333 ft | 228 kts | 40° |
| 2026-05-04 01:57 | 43.86105 | -79.55968 | 4017 ft | 225 kts | 41° |
| 2026-05-04 01:57 | 43.87097 | -79.54300 | 3930 ft | 225 kts | 58° |
| 2026-05-04 01:58 | 43.87421 | -79.52247 | 3704 ft | 215 kts | 98° |
| 2026-05-04 01:58 | 43.86909 | -79.50407 | 3368 ft | 201 kts | 132° |
| 2026-05-04 01:58 | 43.86052 | -79.48915 | 3045 ft | 195 kts | 138° |
| 2026-05-04 01:58 | 43.85152 | -79.47503 | 2993 ft | 196 kts | 139° |
| 2026-05-04 01:59 | 43.84237 | -79.46097 | 2988 ft | 196 kts | 139° |
| 2026-05-04 01:59 | 43.83313 | -79.44688 | 2986 ft | 196 kts | 139° |
| 2026-05-04 01:59 | 43.82318 | -79.43444 | 2968 ft | 187 kts | 159° |
| 2026-05-04 01:59 | 43.81135 | -79.42730 | 2987 ft | 182 kts | 171° |
| 2026-05-04 02:00 | 43.79955 | -79.42740 | 2978 ft | 164 kts | 206° |
| 2026-05-04 02:00 | 43.78964 | -79.43459 | 2990 ft | 158 kts | 221° |
| 2026-05-04 02:00 | 43.78115 | -79.44413 | 2993 ft | 156 kts | 228° |
| 2026-05-04 02:00 | 43.77339 | -79.45464 | 2987 ft | 152 kts | 230° |
| 2026-05-04 02:01 | 43.76652 | -79.46444 | 2979 ft | 132 kts | 231° |
| 2026-05-04 02:01 | 43.76030 | -79.47349 | 2950 ft | 128 kts | 232° |
| 2026-05-04 02:01 | 43.75414 | -79.48251 | 2799 ft | 128 kts | 231° |
| 2026-05-04 02:01 | 43.74800 | -79.49147 | 2619 ft | 128 kts | 231° |
| 2026-05-04 02:02 | 43.74183 | -79.50048 | 2445 ft | 129 kts | 230° |
| 2026-05-04 02:02 | 43.73557 | -79.50960 | 2272 ft | 131 kts | 229° |
| 2026-05-04 02:02 | 43.72926 | -79.51875 | 2090 ft | 131 kts | 229° |
| 2026-05-04 02:02 | 43.72294 | -79.52794 | 1915 ft | 132 kts | 229° |
| 2026-05-04 02:03 | 43.71656 | -79.53721 | 1733 ft | 133 kts | 228° |
| 2026-05-04 02:03 | 43.71015 | -79.54652 | 1552 ft | 134 kts | 228° |
| 2026-05-04 02:03 | 43.70367 | -79.55594 | 1376 ft | 136 kts | 227° |
| 2026-05-04 02:03 | 43.69711 | -79.56549 | 1194 ft | 137 kts | 227° |
| 2026-05-04 02:04 | 43.69046 | -79.57517 | 1007 ft | 139 kts | 226° |
| 2026-05-04 02:04 | 43.68376 | -79.58491 | 826 ft | 140 kts | 225° |
| 2026-05-04 02:04 | 43.67704 | -79.59481 | 610 ft | 141 kts | 225° |
| 2026-05-04 02:04 | 43.67030 | -79.60453 | 529 ft | 131 kts | 225° |
| 2026-05-04 02:05 | 43.66500 | -79.61220 | 517 ft | 85 kts | 231° |
| 2026-05-04 02:05 | 43.66381 | -79.61652 | 525 ft | 5 kts | 262° |
| 2026-05-04 02:05 | 43.66388 | -79.61707 | 527 ft | 5 kts | 304° |
| 2026-05-04 02:05 | 43.66408 | -79.61736 | 528 ft | 3 kts | 314° |
| 2026-05-04 02:06 | 43.66424 | -79.61758 | 529 ft | 3 kts | 316° |
| 2026-05-04 02:06 | 43.66462 | -79.61807 | 532 ft | 10 kts | 316° |
| 2026-05-04 02:06 | 43.66508 | -79.61867 | 535 ft | 7 kts | 316° |
| 2026-05-04 02:06 | 43.66541 | -79.61909 | 537 ft | 5 kts | 316° |
| 2026-05-04 02:07 | 43.66563 | -79.61937 | 538 ft | 4 kts | 316° |
| 2026-05-04 02:07 | 43.66592 | -79.61975 | 540 ft | 8 kts | 316° |
| 2026-05-04 02:07 | 43.66672 | -79.62002 | 544 ft | 17 kts | 35° |
| 2026-05-04 02:07 | 43.66765 | -79.61891 | 543 ft | 17 kts | 42° |
| 2026-05-04 02:08 | 43.66857 | -79.61774 | 543 ft | 18 kts | 43° |
| 2026-05-04 02:08 | 43.66951 | -79.61656 | 542 ft | 18 kts | 42° |
| 2026-05-04 02:08 | 43.67049 | -79.61531 | 539 ft | 20 kts | 42° |
| 2026-05-04 02:08 | 43.67155 | -79.61397 | 538 ft | 20 kts | 43° |
| 2026-05-04 02:09 | 43.67247 | -79.61246 | 535 ft | 17 kts | 34° |
| 2026-05-04 02:09 | 43.67292 | -79.61275 | 537 ft | 7 kts | 311° |
| 2026-05-04 02:09 | 43.67322 | -79.61321 | 539 ft | 6 kts | 313° |
| 2026-05-04 02:09 | 43.67349 | -79.61359 | 541 ft | 5 kts | 316° |
| 2026-05-04 02:10 | 43.67395 | -79.61417 | 544 ft | 12 kts | 317° |
| 2026-05-04 02:10 | 43.67477 | -79.61524 | 549 ft | 17 kts | 316° |
| 2026-05-04 02:10 | 43.67563 | -79.61636 | 550 ft | 17 kts | 316° |
| 2026-05-04 02:10 | 43.67655 | -79.61758 | 550 ft | 19 kts | 316° |
| 2026-05-04 02:11 | 43.67755 | -79.61888 | 550 ft | 20 kts | 315° |
| 2026-05-04 02:11 | 43.67862 | -79.62027 | 550 ft | 21 kts | 320° |
| 2026-05-04 02:11 | 43.67981 | -79.62000 | 550 ft | 20 kts | 66° |
| 2026-05-04 02:11 | 43.68055 | -79.61854 | 550 ft | 18 kts | 61° |
| 2026-05-04 02:12 | 43.68129 | -79.61740 | 550 ft | 4 kts | 17° |
| 2026-05-04 02:12 | 43.68164 | -79.61738 | 550 ft | 5 kts | 354° |
| 2026-05-04 02:12 | 43.68195 | -79.61740 | 550 ft | 3 kts | 12° |
| 2026-05-04 02:12 | 43.68217 | -79.61726 | 550 ft | 4 kts | 46° |
| 2026-05-04 02:13 | 43.68234 | -79.61700 | 550 ft | 4 kts | 47° |
| 2026-05-04 02:13 | 43.68247 | -79.61680 | 550 ft | 2 kts | 46° |
| 2026-05-04 02:13 | 43.68252 | -79.61674 | 550 ft | 0 kts | 46° |